Time;durP1;ratioP1;P1;durP2;ratioP2;P2;SDS_P1;SDS_P2;PMS_P1;PMS_P2;Temp;Humidity;BMP_temperature;BMP_pressure;BME280_temperature;BME280_humidity;BME280_pressure;Samples;Min_cycle;Max_cycle;Signal;HPM_P1;HPM_P2
2020/12/05 04:03:30;;;;;;;11.43;7.90;;;;;;;;;;4874880;28;86994;-88
2020/12/05 04:05:56;;;;;;;9.73;7.10;;;;;;;;;;4879484;28;90831;-89
2020/12/05 04:08:22;;;;;;;8.95;7.13;;;;;;;;;;4872550;28;90706;-89
2020/12/05 04:10:48;;;;;;;10.48;6.57;;;4.20;99.90;;;;;;4883822;28;86730;-89
2020/12/05 04:13:14;;;;;;;10.90;7.55;;;4.20;99.90;;;;;;4882157;28;86727;-89
2020/12/05 04:15:39;;;;;;;11.20;8.18;;;4.00;99.90;;;;;;4874827;28;92027;-88
2020/12/05 04:18:05;;;;;;;13.10;7.47;;;4.20;99.90;;;;;;4864716;29;90865;-89
2020/12/05 04:20:31;;;;;;;12.98;8.13;;;;;;;;;;4872722;28;86537;-88
2020/12/05 04:22:57;;;;;;;9.82;7.07;;;;;;;;;;4880606;28;87072;-89
2020/12/05 04:25:24;;;;;;;10.15;6.40;;;4.30;99.90;;;;;;4892369;28;86639;-90
2020/12/05 04:27:50;;;;;;;9.25;7.13;;;4.20;99.90;;;;;;4872024;28;89536;-88
2020/12/05 04:30:16;;;;;;;11.98;6.93;;;4.20;99.90;;;;;;4876989;28;86267;-89
2020/12/05 04:32:42;;;;;;;12.10;7.97;;;;;;;;;;4874227;28;85881;-89
2020/12/05 04:35:11;;;;;;;11.10;7.18;;;4.20;99.90;;;;;;4890857;28;87650;-89
2020/12/05 04:37:37;;;;;;;10.13;6.32;;;4.30;99.90;;;;;;4870584;28;90060;-89
2020/12/05 04:40:05;;;;;;;10.13;6.43;;;4.30;99.90;;;;;;4888839;28;87720;-89
2020/12/05 04:42:32;;;;;;;12.90;7.25;;;4.30;99.90;;;;;;4869003;29;89230;-89
2020/12/05 04:45:00;;;;;;;10.25;7.22;;;;;;;;;;4890829;28;86890;-89
2020/12/05 04:47:27;;;;;;;11.23;6.82;;;4.30;99.90;;;;;;4872387;28;88197;-88
2020/12/05 04:49:57;;;;;;;11.73;7.72;;;4.40;99.90;;;;;;4887988;28;86348;-86
2020/12/05 04:55:46;;;;;;;9.23;7.05;;;4.40;99.90;;;;;;4906987;28;86648;-90
2020/12/05 04:58:21;;;;;;;10.68;7.05;;;4.40;99.90;;;;;;4903723;28;89143;-90
2020/12/05 05:00:52;;;;;;;8.95;5.47;;;4.30;99.90;;;;;;4871731;28;86084;-90
2020/12/05 05:06:21;;;;;;;10.02;7.22;;;4.20;99.90;;;;;;4940681;23;88368;-90
2020/12/05 05:08:48;;;;;;;8.63;7.60;;;;;;;;;;4910692;28;89017;-90
2020/12/05 05:11:16;;;;;;;7.32;6.05;;;4.20;99.90;;;;;;4911374;28;86523;-90
2020/12/05 05:14:03;;;;;;;18.08;5.90;;;4.20;99.90;;;;;;4910403;28;86957;-90
2020/12/05 05:16:29;;;;;;;9.40;6.82;;;;;;;;;;4907499;28;87748;-91
2020/12/05 05:18:56;;;;;;;10.38;7.82;;;4.20;99.90;;;;;;4907023;28;87854;-91
2020/12/05 05:21:41;;;;;;;10.57;6.55;;;4.20;99.90;;;;;;4926468;28;86479;-91
2020/12/05 05:24:20;;;;;;;13.60;7.80;;;4.20;99.90;;;;;;4909274;28;86898;-91
2020/12/05 05:27:04;;;;;;;35.92;16.05;;;4.10;99.90;;;;;;4907301;28;88980;-90
2020/12/05 05:29:35;;;;;;;28.73;14.55;;;4.10;99.90;;;;;;4910633;28;87848;-91
2020/12/05 05:34:27;;;;;;;15.80;10.63;;;;;;;;;;4928651;28;87058;-90
2020/12/05 05:36:54;;;;;;;11.40;8.23;;;;;;;;;;4910105;28;90211;-91
2020/12/05 05:39:20;;;;;;;11.43;7.00;;;3.90;99.90;;;;;;4913564;28;88712;-90
2020/12/05 05:42:06;;;;;;;18.60;9.13;;;3.90;99.90;;;;;;4914616;28;86336;-90
2020/12/05 05:44:32;;;;;;;22.05;12.40;;;;;;;;;;4913118;28;86856;-91
2020/12/05 05:46:58;;;;;;;11.57;8.57;;;;;;;;;;4912382;28;90511;-91
2020/12/05 05:49:53;;;;;;;36.00;17.75;;;3.80;99.90;;;;;;4910212;28;87995;-91
2020/12/05 05:52:19;;;;;;;22.83;12.95;;;;;;;;;;4911130;28;86939;-90
2020/12/05 05:54:54;;;;;;;31.15;16.67;;;3.90;99.90;;;;;;4913978;28;86326;-90
2020/12/05 05:57:20;;;;;;;19.58;12.15;;;;;;;;;;4912421;28;91287;-90
2020/12/05 05:59:46;;;;;;;24.55;13.55;;;;;;;;;;4930693;28;88330;-91
2020/12/05 06:42:52;;;;;;;23.45;13.95;;;3.50;99.90;;;;;;4931436;28;90711;-90
2020/12/05 06:45:27;;;;;;;26.77;15.65;;;3.30;99.90;;;;;;4921126;28;87677;-90
2020/12/05 06:48:08;;;;;;;23.20;14.57;;;3.30;99.90;;;;;;4930394;28;86416;-90
2020/12/05 06:50:35;;;;;;;26.92;14.73;;;3.30;99.90;;;;;;4912687;28;86850;-91
2020/12/05 06:53:22;;;;;;;25.98;15.70;;;3.20;99.90;;;;;;4912440;28;91083;-91
2020/12/05 06:55:53;;;;;;;30.38;17.30;;;3.20;99.90;;;;;;4912381;28;88711;-91
2020/12/05 06:58:33;;;;;;;25.83;14.83;;;3.30;99.90;;;;;;4908461;28;86786;-90
2020/12/05 07:00:59;;;;;;;30.50;15.10;;;3.30;99.90;;;;;;4899282;28;86779;-90
2020/12/05 07:03:30;;;;;;;25.73;14.30;;;3.30;99.90;;;;;;4914555;28;87041;-91
2020/12/05 07:05:59;;;;;;;25.35;15.45;;;3.30;99.90;;;;;;4905253;28;87977;-90
2020/12/05 07:08:27;;;;;;;26.83;15.57;;;3.30;99.90;;;;;;4924864;28;87802;-90
2020/12/05 07:11:02;;;;;;;26.95;16.50;;;3.20;99.90;;;;;;4911454;28;85744;-91
2020/12/05 07:13:33;;;;;;;31.63;17.77;;;3.20;99.90;;;;;;4911464;28;89166;-90
2020/12/05 07:16:21;;;;;;;30.90;16.67;;;3.10;99.90;;;;;;4929863;28;86949;-91
2020/12/05 07:18:50;;;;;;;33.05;17.67;;;3.10;99.90;;;;;;4903371;28;87689;-91
2020/12/05 07:21:18;;;;;;;31.50;17.08;;;3.10;99.90;;;;;;4913082;28;86296;-91
2020/12/05 07:23:44;;;;;;;29.67;15.93;;;3.10;99.90;;;;;;4912336;28;86874;-91
2020/12/05 07:26:11;;;;;;;29.23;16.85;;;;;;;;;;4911515;28;86456;-91
2020/12/05 07:28:37;;;;;;;30.67;16.38;;;;;;;;;;4911626;28;87992;-91
2020/12/05 07:31:04;;;;;;;33.90;17.52;;;3.30;99.90;;;;;;4914397;28;86390;-90
2020/12/05 07:33:33;;;;;;;34.75;18.92;;;3.30;99.90;;;;;;4907115;28;90066;-89
2020/12/05 07:35:59;;;;;;;33.47;18.27;;;;;;;;;;4928918;28;87937;-89
2020/12/05 07:38:27;;;;;;;35.38;18.48;;;1.00;99.90;;;;;;4912040;28;86832;-89
2020/12/05 07:40:53;;;;;;;33.58;18.83;;;;;;;;;;4910058;28;86868;-89
2020/12/05 07:43:20;;;;;;;31.40;17.92;;;3.40;99.90;;;;;;4905629;28;88980;-90
2020/12/05 07:45:47;;;;;;;34.40;18.00;;;3.40;99.90;;;;;;4919314;28;88057;-91
2020/12/05 07:48:15;;;;;;;33.70;19.30;;;3.40;99.90;;;;;;4909591;28;86575;-90
2020/12/05 07:50:41;;;;;;;34.88;19.45;;;;;;;;;;4895390;28;86746;-90
2020/12/05 07:53:27;;;;;;;29.35;17.77;;;3.40;99.90;;;;;;4909552;28;87117;-91
2020/12/05 07:55:53;;;;;;;30.08;17.38;;;3.40;99.90;;;;;;4923614;28;87534;-90
2020/12/05 07:58:20;;;;;;;31.17;17.65;;;3.40;99.90;;;;;;4905224;28;86856;-90
2020/12/05 08:00:46;;;;;;;33.80;17.05;;;;;;;;;;4905854;28;86062;-89
2020/12/05 08:03:41;;;;;;;33.83;17.58;;;3.50;99.90;;;;;;4925782;28;87379;-90
2020/12/05 08:06:33;;;;;;;32.75;17.75;;;3.40;99.90;;;;;;4910442;28;88444;-89
2020/12/05 08:09:05;;;;;;;33.22;17.65;;;3.50;99.90;;;;;;4830477;29;87302;-90
2020/12/05 08:11:42;;;;;;;30.42;16.83;;;3.60;99.90;;;;;;4910357;28;86970;-90
2020/12/05 08:14:11;;;;;;;31.10;18.67;;;3.60;99.90;;;;;;4928331;28;87186;-91
2020/12/05 08:16:39;;;;;;;32.88;17.05;;;3.60;99.90;;;;;;4897081;28;87431;-90
2020/12/05 08:19:06;;;;;;;32.65;16.73;;;3.50;99.90;;;;;;4915750;28;86233;-91
2020/12/05 08:21:35;;;;;;;33.05;17.52;;;3.60;99.90;;;;;;4937553;28;86692;-90
2020/12/05 08:24:12;;;;;;;29.40;17.58;;;3.60;99.90;;;;;;4909059;28;88360;-89
2020/12/05 08:26:39;;;;;;;30.13;16.80;;;3.80;99.90;;;;;;4905063;28;88998;-92
2020/12/05 08:29:06;;;;;;;29.35;17.33;;;3.90;99.90;;;;;;4902667;28;87017;-90
2020/12/05 08:31:40;;;;;;;27.80;16.08;;;3.90;99.90;;;;;;4910210;28;86421;-90
2020/12/05 08:34:06;;;;;;;27.35;16.20;;;;;;;;;;4909977;28;88085;-83
2020/12/05 08:36:34;;;;;;;26.83;15.85;;;4.10;99.90;;;;;;4927506;28;87324;-85
2020/12/05 08:39:10;;;;;;;26.92;16.05;;;4.10;99.90;;;;;;4928333;28;87033;-82
2020/12/05 08:41:42;;;;;;;30.38;17.23;;;4.40;99.90;;;;;;4924995;28;87417;-84
2020/12/05 08:44:16;;;;;;;27.02;15.77;;;4.40;99.90;;;;;;4909503;28;90149;-85
2020/12/05 08:46:43;;;;;;;31.35;17.45;;;4.30;99.90;;;;;;4921349;28;86952;-83
2020/12/05 08:49:21;;;;;;;29.25;16.05;;;4.40;99.90;;;;;;4924457;28;87100;-84
2020/12/05 08:51:51;;;;;;;25.15;15.40;;;4.40;99.90;;;;;;4929689;28;85933;-83
2020/12/05 08:54:17;;;;;;;26.25;16.35;;;4.50;99.90;;;;;;4927841;28;86614;-84
2020/12/05 08:56:43;;;;;;;28.20;15.52;;;4.50;99.90;;;;;;4927919;28;87349;-82
2020/12/05 08:59:10;;;;;;;30.73;17.92;;;4.50;99.90;;;;;;4925899;28;87793;-81
2020/12/05 09:01:37;;;;;;;30.05;17.30;;;4.40;99.90;;;;;;4925547;28;86948;-84
2020/12/05 09:04:03;;;;;;;31.00;16.77;;;4.40;99.90;;;;;;4926078;28;88186;-84
2020/12/05 09:06:29;;;;;;;28.58;17.55;;;4.40;99.90;;;;;;4926966;28;87404;-84
2020/12/05 09:08:54;;;;;;;28.95;17.60;;;4.40;99.90;;;;;;4927552;28;87213;-81
2020/12/05 09:11:21;;;;;;;29.88;17.33;;;4.50;99.90;;;;;;4926331;28;87226;-83
2020/12/05 09:13:47;;;;;;;31.77;18.30;;;4.50;99.90;;;;;;4932028;28;87248;-82
2020/12/05 09:16:13;;;;;;;31.77;19.00;;;4.40;99.90;;;;;;4931297;28;86310;-82
2020/12/05 09:18:41;;;;;;;30.25;17.15;;;4.30;99.90;;;;;;4931103;28;86677;-82
2020/12/05 09:21:20;;;;;;;32.92;18.27;;;4.30;99.90;;;;;;4931393;28;86973;-81
2020/12/05 09:23:59;;;;;;;30.10;16.40;;;4.30;99.90;;;;;;4930566;28;88337;-81
2020/12/05 09:26:25;;;;;;;31.48;18.75;;;4.40;99.90;;;;;;4931057;28;88511;-82
2020/12/05 09:28:51;;;;;;;27.30;16.92;;;4.50;99.90;;;;;;4931247;28;86961;-82
2020/12/05 09:31:16;;;;;;;31.85;18.55;;;4.50;99.90;;;;;;4930978;28;86739;-80
2020/12/05 09:33:45;;;;;;;28.00;16.25;;;4.50;99.90;;;;;;4929990;28;87087;-80
2020/12/05 09:36:11;;;;;;;26.95;16.77;;;;;;;;;;4929687;28;87487;-83
2020/12/05 09:38:37;;;;;;;30.83;16.98;;;4.60;99.90;;;;;;4913830;28;86934;-83
2020/12/05 09:41:03;;;;;;;30.00;18.52;;;4.50;99.90;;;;;;4930818;28;86574;-82
2020/12/05 09:43:28;;;;;;;29.58;16.83;;;4.40;99.90;;;;;;4931448;28;87184;-82
2020/12/05 09:45:54;;;;;;;33.88;19.10;;;4.50;99.90;;;;;;4931592;28;86632;-82
2020/12/05 09:48:20;;;;;;;29.90;17.42;;;4.60;99.90;;;;;;4927243;28;88273;-82
2020/12/05 09:50:47;;;;;;;32.58;19.58;;;4.70;99.90;;;;;;4930132;28;87019;-82
2020/12/05 09:53:13;;;;;;;30.90;18.30;;;4.60;99.90;;;;;;4927782;28;87358;-82
2020/12/05 09:55:39;;;;;;;29.58;17.90;;;4.70;99.90;;;;;;4930735;28;86969;-82
2020/12/05 09:58:04;;;;;;;29.80;16.08;;;4.70;99.90;;;;;;4930855;28;86823;-81
2020/12/05 10:00:30;;;;;;;31.42;17.25;;;4.80;99.90;;;;;;4929901;28;87003;-83
2020/12/05 10:02:56;;;;;;;27.13;16.85;;;4.90;99.90;;;;;;4930736;28;86839;-83
2020/12/05 10:05:22;;;;;;;30.98;16.95;;;5.00;99.90;;;;;;4925094;28;86792;-82
2020/12/05 10:07:48;;;;;;;26.60;16.95;;;5.10;99.90;;;;;;4924982;28;86903;-83
2020/12/05 10:10:14;;;;;;;27.58;17.13;;;;;;;;;;4921336;28;87852;-84
2020/12/05 10:12:44;;;;;;;30.00;16.75;;;5.20;99.90;;;;;;4930901;28;87979;-85
2020/12/05 10:15:14;;;;;;;27.33;16.63;;;5.20;99.90;;;;;;4924883;28;87828;-85
2020/12/05 10:17:44;;;;;;;32.30;17.15;;;5.20;99.90;;;;;;4925305;28;86836;-84
2020/12/05 10:20:10;;;;;;;26.23;15.95;;;5.30;99.90;;;;;;4917760;28;89372;-84
2020/12/05 10:22:36;;;;;;;25.70;16.80;;;5.30;99.90;;;;;;4924823;28;87398;-83
2020/12/05 10:25:04;;;;;;;24.88;15.60;;;5.40;99.90;;;;;;4927579;28;88197;-84
2020/12/05 10:27:29;;;;;;;28.55;17.27;;;5.40;99.90;;;;;;4929553;28;86744;-84
2020/12/05 10:29:55;;;;;;;28.15;17.60;;;5.40;99.90;;;;;;4930184;28;86010;-84
2020/12/05 10:32:21;;;;;;;31.75;17.95;;;5.40;99.90;;;;;;4929596;28;86943;-84
2020/12/05 10:34:47;;;;;;;29.05;17.45;;;5.40;99.90;;;;;;4925549;28;86563;-85
2020/12/05 10:37:12;;;;;;;29.83;18.83;;;5.40;99.90;;;;;;4927682;28;87178;-85
2020/12/05 10:39:38;;;;;;;28.15;17.20;;;5.30;99.90;;;;;;4929510;28;87133;-84
2020/12/05 10:42:04;;;;;;;31.70;19.58;;;5.30;99.90;;;;;;4910623;28;90883;-85
2020/12/05 10:44:29;;;;;;;28.52;16.77;;;5.30;99.90;;;;;;4927796;28;87805;-85
2020/12/05 10:46:55;;;;;;;31.00;17.83;;;5.20;99.90;;;;;;4929393;28;88721;-84
2020/12/05 10:49:23;;;;;;;29.75;17.30;;;5.20;99.90;;;;;;4929889;28;86590;-85
2020/12/05 10:51:49;;;;;;;30.38;17.50;;;5.20;99.90;;;;;;4930548;28;87282;-83
2020/12/05 10:54:15;;;;;;;33.90;18.50;;;5.30;99.90;;;;;;4928119;28;87148;-84
2020/12/05 10:56:41;;;;;;;30.98;18.48;;;;;;;;;;4927385;28;86887;-84
2020/12/05 10:59:07;;;;;;;30.70;17.85;;;5.30;99.90;;;;;;4923899;28;87404;-81
2020/12/05 11:01:33;;;;;;;31.35;18.88;;;5.30;99.90;;;;;;4925708;28;89390;-83
2020/12/05 11:03:59;;;;;;;28.15;16.65;;;5.30;99.90;;;;;;4925292;28;88320;-83
2020/12/05 11:06:26;;;;;;;32.50;18.10;;;5.40;99.90;;;;;;4925431;28;87052;-83
2020/12/05 11:08:53;;;;;;;27.45;17.67;;;5.30;99.90;;;;;;4927158;28;86797;-84
2020/12/05 11:11:19;;;;;;;29.85;18.67;;;5.30;99.90;;;;;;4919192;28;86806;-81
2020/12/05 11:13:45;;;;;;;27.30;17.67;;;5.30;99.90;;;;;;4928380;28;86854;-82
2020/12/05 11:16:16;;;;;;;28.83;18.23;;;5.30;99.90;;;;;;4928927;28;86897;-82
2020/12/05 11:18:42;;;;;;;30.27;18.48;;;5.40;99.90;;;;;;4928528;28;88295;-82
2020/12/05 11:21:07;;;;;;;30.55;19.45;;;5.40;99.90;;;;;;4927320;28;86911;-83
2020/12/05 11:23:33;;;;;;;34.55;18.25;;;5.40;99.90;;;;;;4927808;28;87242;-82
2020/12/05 11:25:59;;;;;;;31.90;18.63;;;5.40;99.90;;;;;;4927475;28;87843;-81
2020/12/05 11:28:24;;;;;;;28.50;17.13;;;5.40;99.90;;;;;;4927688;28;87096;-82
2020/12/05 11:30:50;;;;;;;27.55;17.50;;;5.50;99.90;;;;;;4924072;28;87271;-82
2020/12/05 11:33:16;;;;;;;28.35;19.05;;;5.50;99.90;;;;;;4924196;28;86394;-83
2020/12/05 11:35:41;;;;;;;31.75;19.45;;;5.60;99.90;;;;;;4927418;28;86931;-83
2020/12/05 11:38:07;;;;;;;33.83;20.55;;;5.70;99.90;;;;;;4929157;28;86838;-80
2020/12/05 11:40:33;;;;;;;35.20;18.90;;;5.70;99.90;;;;;;4924200;28;87275;-82
2020/12/05 11:42:59;;;;;;;29.52;18.23;;;5.90;99.90;;;;;;4904833;28;87010;-83
2020/12/05 11:45:24;;;;;;;31.05;17.88;;;6.00;99.90;;;;;;4906174;28;86719;-80
2020/12/05 11:47:50;;;;;;;33.40;19.55;;;6.10;99.90;;;;;;4907422;28;86863;-82
2020/12/05 11:50:16;;;;;;;35.70;18.80;;;6.10;99.90;;;;;;4911067;28;88086;-81
2020/12/05 11:52:43;;;;;;;37.42;20.35;;;6.10;99.90;;;;;;4907054;28;88406;-81
2020/12/05 11:55:08;;;;;;;30.50;18.15;;;6.10;99.90;;;;;;4908895;28;87082;-81
2020/12/05 11:57:34;;;;;;;33.80;20.85;;;6.10;99.90;;;;;;4910804;28;86786;-83
2020/12/05 11:59:59;;;;;;;27.92;19.10;;;6.10;99.90;;;;;;4906780;28;87045;-84
2020/12/05 12:02:26;;;;;;;32.25;20.80;;;6.20;99.90;;;;;;4910497;28;87508;-84
2020/12/05 12:04:51;;;;;;;29.58;18.02;;;6.20;99.90;;;;;;4911945;28;87596;-83
2020/12/05 12:07:17;;;;;;;39.80;23.70;;;6.00;99.90;;;;;;4910559;28;86315;-85
2020/12/05 12:09:43;;;;;;;32.67;18.02;;;6.00;99.90;;;;;;4910782;28;87746;-79
2020/12/05 12:12:08;;;;;;;30.23;17.60;;;5.90;99.90;;;;;;4913774;28;86969;-81
2020/12/05 12:14:35;;;;;;;30.92;18.67;;;5.80;99.90;;;;;;4913788;28;87546;-80
2020/12/05 12:17:00;;;;;;;26.65;17.05;;;5.90;99.90;;;;;;4894167;28;86963;-81
2020/12/05 12:19:26;;;;;;;28.63;17.63;;;5.90;99.90;;;;;;4904879;28;86960;-80
2020/12/05 12:21:52;;;;;;;27.25;17.60;;;5.90;99.90;;;;;;4913441;28;87012;-81
2020/12/05 12:24:17;;;;;;;26.48;17.30;;;6.00;99.90;;;;;;4910750;28;86905;-82
2020/12/05 12:26:43;;;;;;;25.67;16.48;;;6.00;99.90;;;;;;4906583;28;87280;-82
2020/12/05 12:29:09;;;;;;;24.55;16.05;;;6.00;99.90;;;;;;4904827;28;87356;-82
2020/12/05 12:31:35;;;;;;;31.05;18.15;;;6.00;99.90;;;;;;4906888;28;86237;-81
2020/12/05 12:34:00;;;;;;;33.30;19.95;;;6.00;99.90;;;;;;4914667;28;86750;-82
2020/12/05 12:36:26;;;;;;;28.77;18.60;;;5.90;99.90;;;;;;4907504;28;87022;-81
2020/12/05 12:38:52;;;;;;;29.13;17.45;;;6.00;99.90;;;;;;4889409;28;89805;-83
2020/12/05 12:41:19;;;;;;;29.67;18.75;;;6.10;99.90;;;;;;4905469;28;88336;-82
2020/12/05 12:43:45;;;;;;;29.13;18.02;;;6.00;99.90;;;;;;4904959;28;87527;-84
2020/12/05 12:46:12;;;;;;;32.95;19.83;;;6.00;99.90;;;;;;4909881;28;86868;-84
2020/12/05 12:48:39;;;;;;;28.05;16.77;;;6.00;99.90;;;;;;4907703;28;86946;-84
2020/12/05 12:51:06;;;;;;;29.60;17.50;;;5.90;99.90;;;;;;4909088;28;87968;-83
2020/12/05 12:53:32;;;;;;;35.13;18.65;;;5.90;99.90;;;;;;4906560;28;86964;-84
2020/12/05 12:55:57;;;;;;;30.67;16.63;;;5.80;99.90;;;;;;4908663;28;86405;-84
2020/12/05 12:58:31;;;;;;;33.28;19.35;;;5.80;99.90;;;;;;4908419;28;87143;-81
2020/12/05 13:00:57;;;;;;;34.15;19.58;;;5.80;99.90;;;;;;4895716;28;87009;-82
2020/12/05 13:03:23;;;;;;;34.00;19.63;;;5.70;99.90;;;;;;4905312;28;87953;-81
2020/12/05 13:05:50;;;;;;;32.53;18.73;;;5.70;99.90;;;;;;4882716;28;87125;-81
2020/12/05 13:08:15;;;;;;;30.63;18.23;;;5.60;99.90;;;;;;4905068;28;86983;-81
2020/12/05 13:10:41;;;;;;;30.77;18.10;;;5.50;99.90;;;;;;4891068;28;89464;-81
2020/12/05 13:13:07;;;;;;;31.63;17.83;;;5.40;99.90;;;;;;4904332;28;86939;-80
2020/12/05 13:15:33;;;;;;;35.13;19.65;;;5.30;99.90;;;;;;4906838;28;86709;-80
2020/12/05 13:17:58;;;;;;;32.67;18.58;;;5.00;99.90;;;;;;4910723;28;86871;-80
2020/12/05 13:20:24;;;;;;;32.55;19.60;;;5.00;99.90;;;;;;4915345;28;86848;-81
2020/12/05 13:22:50;;;;;;;38.28;21.27;;;4.90;99.90;;;;;;4900024;28;86117;-82
2020/12/05 13:25:16;;;;;;;31.77;18.63;;;4.90;99.90;;;;;;4900686;28;86717;-81
2020/12/05 13:27:41;;;;;;;37.67;20.20;;;4.90;99.90;;;;;;4905619;28;88172;-81
2020/12/05 13:30:07;;;;;;;36.28;19.35;;;5.00;99.90;;;;;;4913360;28;88017;-81
2020/12/05 13:32:33;;;;;;;35.03;19.05;;;5.00;99.90;;;;;;4908760;28;86921;-81
2020/12/05 13:34:58;;;;;;;30.65;18.33;;;5.10;99.90;;;;;;4902092;28;87042;-80
2020/12/05 13:37:24;;;;;;;30.90;17.50;;;5.20;99.90;;;;;;4907592;28;88018;-82
2020/12/05 13:39:49;;;;;;;29.73;16.83;;;5.30;99.90;;;;;;4901056;28;87464;-81
2020/12/05 13:42:17;;;;;;;31.20;17.10;;;5.40;99.90;;;;;;4912891;28;87030;-82
2020/12/05 13:44:44;;;;;;;31.10;18.15;;;5.50;99.90;;;;;;4899281;28;86816;-82
2020/12/05 13:47:10;;;;;;;30.17;17.83;;;5.70;99.90;;;;;;4927251;28;87608;-81
2020/12/05 13:49:36;;;;;;;32.35;19.27;;;;;;;;;;4926464;28;86978;-82
2020/12/05 13:52:07;;;;;;;30.42;18.13;;;5.70;99.90;;;;;;4926924;28;87862;-82
2020/12/05 13:54:36;;;;;;;31.02;18.90;;;5.80;99.90;;;;;;4923599;28;86839;-83
2020/12/05 13:57:04;;;;;;;33.97;18.80;;;5.80;99.90;;;;;;4923601;28;87572;-83
2020/12/05 13:59:30;;;;;;;31.67;18.35;;;5.80;99.90;;;;;;4929195;28;86789;-82
2020/12/05 14:01:57;;;;;;;29.55;18.38;;;5.80;99.90;;;;;;4926793;28;86966;-82
2020/12/05 14:04:27;;;;;;;31.92;18.73;;;5.80;99.90;;;;;;4929989;28;86288;-81
2020/12/05 14:06:54;;;;;;;31.27;18.42;;;5.80;99.90;;;;;;4929628;28;86754;-82
2020/12/05 14:09:21;;;;;;;35.67;20.13;;;5.80;99.90;;;;;;4924951;28;87003;-81
2020/12/05 14:11:46;;;;;;;36.80;21.30;;;5.80;99.90;;;;;;4907201;28;89444;-83
2020/12/05 14:14:16;;;;;;;43.90;24.00;;;5.80;99.90;;;;;;4927721;28;86826;-82
2020/12/05 14:16:42;;;;;;;43.10;22.95;;;5.80;99.90;;;;;;4906243;28;88757;-83
2020/12/05 14:19:09;;;;;;;44.88;22.65;;;5.80;99.90;;;;;;4925860;28;88349;-84
2020/12/05 14:21:35;;;;;;;38.97;21.88;;;5.70;99.90;;;;;;4927430;28;87069;-84
2020/12/05 14:24:00;;;;;;;41.72;21.88;;;5.70;99.90;;;;;;4930676;28;86850;-85
2020/12/05 14:26:28;;;;;;;43.33;22.85;;;5.70;99.90;;;;;;4928128;28;87223;-84
2020/12/05 14:28:54;;;;;;;36.65;21.92;;;5.70;99.90;;;;;;4928325;28;87006;-83
2020/12/05 14:31:21;;;;;;;43.75;23.95;;;5.70;99.90;;;;;;4927127;28;86888;-83
2020/12/05 14:33:47;;;;;;;37.13;20.95;;;5.80;99.90;;;;;;4929312;28;86325;-83
2020/12/05 14:36:18;;;;;;;41.08;22.30;;;5.80;99.90;;;;;;4913194;28;88319;-83
2020/12/05 14:38:44;;;;;;;35.97;21.70;;;5.80;99.90;;;;;;4929431;28;86806;-83
2020/12/05 14:41:10;;;;;;;35.83;21.08;;;5.80;99.90;;;;;;4930102;28;87466;-83
2020/12/05 14:43:37;;;;;;;42.30;22.38;;;5.90;99.90;;;;;;4928802;28;87194;-83
2020/12/05 14:46:04;;;;;;;36.22;22.77;;;5.80;99.90;;;;;;4930339;28;87053;-84
2020/12/05 14:48:30;;;;;;;32.28;19.73;;;5.80;99.90;;;;;;4928742;28;88260;-83
2020/12/05 14:50:57;;;;;;;32.15;20.80;;;5.90;99.90;;;;;;4930192;28;86796;-84
2020/12/05 14:53:22;;;;;;;35.08;20.80;;;5.90;99.90;;;;;;4928166;28;87242;-83
2020/12/05 14:55:48;;;;;;;40.70;22.90;;;5.90;99.90;;;;;;4930770;28;86875;-83
2020/12/05 14:58:14;;;;;;;44.90;24.10;;;5.80;99.90;;;;;;4929929;28;86241;-83
2020/12/05 15:00:39;;;;;;;41.70;23.65;;;5.80;99.90;;;;;;4930337;28;86575;-83
2020/12/05 15:03:05;;;;;;;40.08;21.02;;;5.80;99.90;;;;;;4928152;28;87435;-83
2020/12/05 15:05:31;;;;;;;44.45;23.98;;;5.80;99.90;;;;;;4925633;28;87692;-83
2020/12/05 15:07:56;;;;;;;37.65;21.33;;;5.70;99.90;;;;;;4926420;28;88575;-83
2020/12/05 15:10:23;;;;;;;41.75;22.85;;;5.60;99.90;;;;;;4928611;28;86663;-83
2020/12/05 15:12:50;;;;;;;47.35;24.88;;;5.50;99.90;;;;;;4925284;28;86603;-83
2020/12/05 15:15:16;;;;;;;42.75;25.38;;;5.50;99.90;;;;;;4928504;28;87492;-83
2020/12/05 15:17:42;;;;;;;44.90;24.80;;;5.40;99.90;;;;;;4927648;28;87397;-83
2020/12/05 15:20:08;;;;;;;48.05;24.98;;;5.40;99.90;;;;;;4929324;28;86620;-83
2020/12/05 15:22:34;;;;;;;42.88;24.00;;;5.50;99.90;;;;;;4929985;28;86031;-84
2020/12/05 15:25:00;;;;;;;43.20;24.05;;;5.50;99.90;;;;;;4929574;28;87266;-83
2020/12/05 15:27:26;;;;;;;35.50;20.20;;;5.50;99.90;;;;;;4927375;28;87972;-84
2020/12/05 15:29:52;;;;;;;39.55;22.10;;;5.60;99.90;;;;;;4928617;28;87770;-83
2020/12/05 15:32:19;;;;;;;36.08;20.20;;;5.60;99.90;;;;;;4927821;28;86981;-83
2020/12/05 15:34:45;;;;;;;34.28;19.42;;;5.70;99.90;;;;;;4929645;28;87052;-83
2020/12/05 15:37:10;;;;;;;33.05;18.33;;;5.70;99.90;;;;;;4929077;28;86984;-83
2020/12/05 15:39:36;;;;;;;33.90;18.58;;;5.60;99.90;;;;;;4929118;28;87004;-83
2020/12/05 15:42:02;;;;;;;30.92;17.73;;;5.60;99.90;;;;;;4929201;28;86618;-83
2020/12/05 15:44:28;;;;;;;34.28;18.80;;;5.60;99.90;;;;;;4929283;28;88177;-83
2020/12/05 15:46:58;;;;;;;33.53;18.02;;;5.60;99.90;;;;;;4929304;28;87039;-83
2020/12/05 15:49:24;;;;;;;27.33;16.52;;;5.50;99.90;;;;;;4929545;28;87053;-83
2020/12/05 15:51:51;;;;;;;27.85;14.18;;;5.50;99.90;;;;;;4928844;28;87019;-83
2020/12/05 15:54:17;;;;;;;21.00;12.98;;;5.50;99.90;;;;;;4927814;28;88680;-83
2020/12/05 15:56:46;;;;;;;19.38;12.55;;;5.50;99.90;;;;;;4928246;28;87538;-83
2020/12/05 15:59:12;;;;;;;23.27;13.50;;;5.40;99.90;;;;;;4910438;28;87422;-83
2020/12/05 16:01:38;;;;;;;24.05;14.00;;;5.40;99.90;;;;;;4927202;28;86721;-83
2020/12/05 16:04:03;;;;;;;15.77;9.93;;;5.40;99.90;;;;;;4925621;28;87231;-83
2020/12/05 16:06:29;;;;;;;14.85;9.57;;;5.40;99.90;;;;;;4926738;28;87224;-83
2020/12/05 16:08:55;;;;;;;11.98;8.90;;;5.40;99.90;;;;;;4910374;28;86983;-83
2020/12/05 16:11:20;;;;;;;13.57;9.25;;;5.30;99.90;;;;;;4927240;28;85910;-83
2020/12/05 16:13:47;;;;;;;14.98;10.90;;;5.40;99.90;;;;;;4927143;28;87231;-83
2020/12/05 16:16:22;;;;;;;13.98;10.07;;;5.30;99.90;;;;;;4927945;28;86744;-83
2020/12/05 16:18:50;;;;;;;19.17;10.02;;;5.30;99.90;;;;;;4926179;28;87873;-83
2020/12/05 16:21:19;;;;;;;12.57;9.15;;;5.30;99.90;;;;;;4926119;28;87069;-83
2020/12/05 16:23:45;;;;;;;13.75;8.48;;;5.30;99.90;;;;;;4928153;28;87306;-83
2020/12/05 16:26:12;;;;;;;13.15;9.32;;;5.20;99.90;;;;;;4922819;28;86920;-83
2020/12/05 16:28:38;;;;;;;17.70;10.35;;;5.20;99.90;;;;;;4909877;28;86579;-83
2020/12/05 16:31:04;;;;;;;14.65;8.68;;;5.20;99.90;;;;;;4907885;28;87146;-83
2020/12/05 16:33:29;;;;;;;13.60;9.07;;;5.00;99.90;;;;;;4927088;28;87448;-83
2020/12/05 16:35:55;;;;;;;13.93;9.43;;;4.90;99.90;;;;;;4926791;28;86218;-83
2020/12/05 16:38:21;;;;;;;11.93;9.18;;;4.90;99.90;;;;;;4927033;28;87241;-83
2020/12/05 16:40:46;;;;;;;15.82;9.23;;;4.90;99.90;;;;;;4926603;28;86864;-83
2020/12/05 16:43:12;;;;;;;10.32;7.53;;;4.90;99.90;;;;;;4926636;28;88696;-83
2020/12/05 16:45:38;;;;;;;8.82;7.22;;;4.80;99.90;;;;;;4926427;28;87948;-83
2020/12/05 16:48:04;;;;;;;11.50;8.13;;;4.80;99.90;;;;;;4927275;28;87091;-83
2020/12/05 16:50:29;;;;;;;10.30;7.32;;;4.80;99.90;;;;;;4927053;28;87088;-83
2020/12/05 16:52:55;;;;;;;10.68;7.53;;;4.70;99.90;;;;;;4926998;28;86724;-83
2020/12/05 16:55:21;;;;;;;11.48;8.20;;;4.60;99.90;;;;;;4926591;28;86925;-83
2020/12/05 16:57:46;;;;;;;11.35;8.07;;;4.60;99.90;;;;;;4921929;28;86708;-83
2020/12/05 17:00:12;;;;;;;13.35;8.80;;;;;;;;;;4926100;28;86024;-83
2020/12/05 17:02:38;;;;;;;13.80;8.75;;;4.50;99.90;;;;;;4925550;28;86587;-83
2020/12/05 17:05:04;;;;;;;12.15;8.55;;;4.50;99.90;;;;;;4923256;28;86921;-83
2020/12/05 17:07:29;;;;;;;10.90;7.97;;;4.60;99.90;;;;;;4925761;28;87924;-83
2020/12/05 17:09:55;;;;;;;11.27;7.88;;;4.60;99.90;;;;;;4908097;28;87040;-83
2020/12/05 17:12:21;;;;;;;10.75;8.70;;;4.40;99.90;;;;;;4926513;28;87348;-83
2020/12/05 17:14:46;;;;;;;10.77;8.27;;;4.20;99.90;;;;;;4926061;28;88032;-83
2020/12/05 17:17:12;;;;;;;10.30;8.23;;;4.10;99.90;;;;;;4916772;28;86933;-83
2020/12/05 17:19:38;;;;;;;13.27;9.38;;;4.00;99.90;;;;;;4926381;28;87132;-83
2020/12/05 17:22:03;;;;;;;11.40;9.05;;;4.10;99.90;;;;;;4926928;28;87576;-83
2020/12/05 17:24:29;;;;;;;11.15;8.90;;;4.10;99.90;;;;;;4926310;28;86734;-83
2020/12/05 17:26:55;;;;;;;13.90;9.65;;;4.10;99.90;;;;;;4926265;28;86835;-83
2020/12/05 17:29:21;;;;;;;12.52;9.00;;;3.90;99.90;;;;;;4926909;28;87030;-83
2020/12/05 17:31:51;;;;;;;14.00;10.05;;;4.00;99.90;;;;;;4926399;28;87895;-83
2020/12/05 17:34:16;;;;;;;15.38;10.60;;;4.00;99.90;;;;;;4928586;28;87957;-83
2020/12/05 17:36:42;;;;;;;15.10;9.95;;;4.00;99.90;;;;;;4929549;28;86802;-83
2020/12/05 17:39:08;;;;;;;14.27;10.18;;;3.90;99.90;;;;;;4930583;28;86875;-83
2020/12/05 17:41:34;;;;;;;14.45;10.07;;;3.80;99.90;;;;;;4929682;28;87676;-83